FW4510 Weather Reports


Display with metric or nautical units.
time (UTC)temp
F
wind
direction
speed
MPH
gust
MPH
rain 1hr
in
rain 24hr
in
rain mn
in
humidity
%
barometer
mb
20190819160013 80 193 2.0 4.0 0.00 0.00 0.00 51 1010.5
20190819154502 81 117 1.0 6.0 0.00 0.00 0.00 50 1010.7
20190819153131 79 130 0.0 4.0 0.00 0.00 0.00 50 1010.6
20190819151640 78 185 2.0 6.0 0.00 0.00 0.00 52 1010.5
20190819150150 76 82 1.0 6.0 0.00 0.00 0.00 55 1010.7
20190819144652 75 170 1.0 7.0 0.00 0.00 0.00 56 1010.5
20190819143240 73 193 2.0 5.0 0.00 0.00 0.00 60 1010.3
20190819141625 73 173 2.0 6.0 0.00 0.00 0.00 61 1010.2
20190819140109 73 203 1.0 6.0 0.00 0.00 0.00 60 1010.0
20190819134702 73 150 2.0 7.0 0.00 0.00 0.00 59 1009.9
20190819133125 73 113 2.0 5.0 0.00 0.00 0.00 59 1009.8
20190819131637 73 169 1.0 5.0 0.00 0.00 0.00 58 1009.8
20190819130135 72 118 1.0 7.0 0.00 0.00 0.00 60 1009.7
20190819124638 72 156 2.0 8.0 0.00 0.00 0.00 60 1009.6
20190819123106 72 80 1.0 7.0 0.00 0.00 0.00 61 1009.4
20190819121636 72 128 2.0 6.0 0.00 0.00 0.00 59 1009.3
20190819120106 73 121 0.0 6.0 0.00 0.00 0.00 57 1009.2
20190819114617 71 100 0.0 2.0 0.00 0.00 0.00 59 1009.2
20190819113117 72 100 0.0 4.0 0.00 0.00 0.00 59 1009.1
20190819111714 72 103 1.0 4.0 0.00 0.00 0.00 59 1009.1
20190819110052 72 111 1.0 3.0 0.00 0.00 0.00 60 1009.0
20190819104606 73 141 2.0 4.0 0.00 0.00 0.00 59 1009.0
20190819103100 73 119 1.0 4.0 0.00 0.00 0.00 60 1009.0
20190819101621 73 134 1.0 3.0 0.00 0.00 0.00 59 1008.9
20190819100122 73 144 1.0 4.0 0.00 0.00 0.00 59 1008.7
20190819094539 73 134 0.0 2.0 0.00 0.00 0.00 60 1008.8
20190819093104 74 134 1.0 2.0 0.00 0.00 0.00 57 1008.7
20190819091617 75 128 1.0 5.0 0.00 0.00 0.00 56 1008.9
20190819090045 75 125 2.0 4.0 0.00 0.00 0.00 56 1008.8
20190819084528 75 134 1.0 3.0 0.00 0.00 0.00 56 1009.0
20190819083056 75 136 1.0 3.0 0.00 0.00 0.00 55 1009.0
20190819081526 75 147 1.0 3.0 0.00 0.00 0.00 54 1009.1
20190819080038 76 134 1.0 7.0 0.00 0.00 0.00 54 1009.1
20190819074536 75 193 0.0 5.0 0.00 0.00 0.00 54 1009.2
20190819073038 75 163 0.0 3.0 0.00 0.00 0.00 55 1009.2
20190819071530 75 153 1.0 5.0 0.00 0.00 0.00 53 1009.0
20190819070019 76 137 0.0 4.0 0.00 0.00 0.00 52 1009.2
20190819064534 76 120 1.0 3.0 0.00 0.00 0.00 49 1009.3
20190819063030 76 132 2.0 4.0 0.00 0.00 0.00 50 1009.4
20190819061515 75 121 2.0 3.0 0.00 0.00 0.00 52 1009.4
20190819060011 74 142 0.0 3.0 0.00 0.00 0.00 54 1009.7
20190819054534 76 113 2.0 3.0 0.00 0.00 0.00 50 1009.6
20190819053046 76 142 2.0 5.0 0.00 0.00 0.00 50 1009.4
20190819051526 76 101 2.0 4.0 0.00 0.00 0.00 49 1009.4
20190819050029 76 128 1.0 4.0 0.00 0.00 0.00 48 1009.2
20190819044514 77 151 2.0 4.0 0.00 0.00 0.00 49 1009.0
20190819043021 77 102 2.0 4.0 0.00 0.00 0.00 50 1008.9
20190819041521 78 140 1.0 5.0 0.00 0.00 0.00 48 1008.5
20190819040036 77 140 1.0 4.0 0.00 0.00 0.00 51 1008.2
20190819034508 77 171 1.0 4.0 0.00 0.00 0.00 52 1008.0
20190819033007 77 128 1.0 6.0 0.00 0.00 0.00 53 1007.9
20190819031532 78 128 2.0 6.0 0.00 0.00 0.00 53 1007.8
20190819030005 79 123 1.0 7.0 0.00 0.00 0.00 53 1007.8
20190819024504 79 112 3.0 8.0 0.00 0.00 0.00 52 1007.8
20190819023019 80 190 3.0 6.0 0.00 0.00 0.00 52 1007.7
20190819021505 80 140 3.0 8.0 0.00 0.00 0.00 51 1007.6
20190819020004 81 165 1.0 5.0 0.00 0.00 0.00 49 1007.5
20190819014507 82 214 2.0 9.0 0.00 0.00 0.00 47 1007.3
20190819013003 83 121 3.0 6.0 0.00 0.00 0.00 43 1007.1
20190819011648 84 158 2.0 10.0 0.00 0.00 0.00 40 1007.2
20190819010140 84 192 4.0 8.0 0.00 0.00 0.00 39 1007.5
20190819004729 86 242 5.0 15.0 0.00 0.00 0.00 36 1007.6
20190819003220 87 226 7.0 12.0 0.00 0.00 0.00 33 1007.5
20190819001749 88 180 10.0 17.0 0.00 0.00 0.00 32 1007.5
20190819000140 89 212 0.0 3.0 0.00 0.00 0.00 27 1007.2
20190818234643 88 252 2.0 8.0 0.00 0.00 0.00 29 1007.3
20190818233146 88 265 6.0 14.0 0.00 0.00 0.00 30 1007.3
20190818231656 89 254 7.0 16.0 0.00 0.00 0.00 29 1007.2
20190818230156 90 237 12.0 21.0 0.00 0.00 0.00 29 1007.2
20190818224636 93 245 3.0 7.0 0.00 0.00 0.00 27 1006.7
20190818223217 93 250 2.0 5.0 0.00 0.00 0.00 24 1006.6
20190818221623 96 234 2.0 6.0 0.00 0.00 0.00 23 1006.7
20190818220142 93 230 1.0 9.0 0.00 0.00 0.00 25 1006.7
20190818214629 95 243 6.0 18.0 0.00 0.00 0.00 25 1006.8
20190818213207 94 42 5.0 10.0 0.00 0.00 0.00 26 1007.1
20190818211612 94 46 1.0 9.0 0.00 0.00 0.00 26 1007.4
20190818210141 95 236 1.0 6.0 0.00 0.00 0.00 26 1007.5
20190818204657 94 244 3.0 10.0 0.00 0.00 0.00 25 1007.8
20190818203119 94 240 2.0 11.0 0.00 0.00 0.00 23 1008.1
20190818201646 93 109 2.0 7.0 0.00 0.00 0.00 27 1008.2
20190818200102 94 105 4.0 12.0 0.00 0.00 0.00 27 1008.2
20190818194609 93 248 2.0 6.0 0.00 0.00 0.00 29 1008.5
20190818193101 92 165 3.0 7.0 0.00 0.00 0.00 29 1008.6
20190818191625 90 48 1.0 5.0 0.00 0.00 0.00 35 1008.8
20190818190115 90 161 0.0 4.0 0.00 0.00 0.00 38 1009.0
20190818184550 88 206 2.0 8.0 0.00 0.00 0.00 41 1009.2
20190818183040 87 182 4.0 6.0 0.00 0.00 0.00 45 1009.2
20190818181552 86 215 3.0 8.0 0.00 0.00 0.00 46 1009.4
20190818180057 87 204 4.0 7.0 0.00 0.00 0.00 46 1009.3
20190818174527 87 209 3.0 9.0 0.00 0.00 0.00 47 1009.3
20190818173023 86 111 2.0 7.0 0.00 0.00 0.00 47 1009.4
20190818171602 85 193 2.0 6.0 0.00 0.00 0.00 48 1009.3
20190818170113 85 104 2.0 5.0 0.00 0.00 0.00 47 1009.4
20190818164517 84 86 3.0 9.0 0.00 0.00 0.00 52 1009.3
20190818163016 82 190 2.0 5.0 0.00 0.00 0.00 55 1009.4
20190818161511 80 178 2.0 7.0 0.00 0.00 0.00 58 1009.4